createdAt,value
2023-11-19T00:02:46.110Z,1.90
2023-11-19T00:07:51.110Z,2.08
2023-11-19T00:12:54.658Z,2.30
2023-11-19T00:18:01.823Z,2.50
2023-11-19T00:23:07.042Z,2.60
2023-11-19T00:28:10.526Z,2.20
2023-11-19T00:33:14.021Z,2.40
2023-11-19T00:38:19.189Z,2.40
2023-11-19T00:43:23.408Z,2.38
2023-11-19T00:48:27.989Z,2.20
2023-11-19T00:53:33.191Z,2.40
2023-11-19T00:58:37.593Z,2.13
2023-11-19T01:03:41.184Z,2.38
2023-11-19T01:08:46.713Z,2.10
2023-11-19T01:13:50.327Z,2.00
2023-11-19T01:19:05.502Z,2.10
2023-11-19T01:24:17.136Z,2.08
2023-11-19T01:29:21.231Z,2.20
2023-11-19T01:34:24.764Z,2.20
2023-11-19T01:39:29.640Z,2.20
2023-11-19T01:44:33.338Z,2.10
2023-11-19T01:49:37.511Z,2.20
2023-11-19T01:54:42.351Z,1.90
2023-11-19T01:59:46.500Z,1.90
2023-11-19T02:04:52.076Z,2.00
2023-11-19T02:09:59.503Z,2.05
2023-11-19T02:15:03.496Z,1.90
2023-11-19T02:20:12.508Z,1.88
2023-11-19T02:25:27.987Z,2.00
2023-11-19T02:30:33.218Z,1.80
2023-11-19T02:35:36.940Z,1.90
2023-11-19T02:40:40.414Z,1.95
2023-11-19T02:45:47.027Z,1.60
2023-11-19T02:50:51.145Z,1.73
2023-11-19T02:55:54.574Z,1.80
2023-11-19T03:01:10.897Z,1.90
2023-11-19T03:06:14.402Z,1.73
2023-11-19T03:11:18.040Z,1.83
2023-11-19T03:16:23.029Z,1.60
2023-11-19T03:21:30.870Z,1.70
2023-11-19T03:26:35.014Z,1.73
2023-11-19T03:31:45.685Z,1.98
2023-11-19T03:36:50.114Z,1.63
2023-11-19T03:41:53.634Z,1.83
2023-11-19T03:46:58.490Z,1.58
2023-11-19T03:52:02.301Z,1.70
2023-11-19T03:57:06.770Z,1.52
2023-11-19T04:02:11.664Z,1.52
2023-11-19T04:07:15.223Z,1.40
2023-11-19T04:12:18.751Z,1.40
2023-11-19T04:17:24.083Z,1.30
2023-11-19T04:22:27.585Z,1.33
2023-11-19T04:27:31.103Z,1.42
2023-11-19T04:32:35.939Z,1.63
2023-11-19T04:37:40.237Z,1.52
2023-11-19T04:42:43.810Z,1.30
2023-11-19T04:47:48.647Z,1.27
2023-11-19T04:52:52.117Z,1.30
2023-11-19T04:57:57.064Z,1.40
2023-11-19T05:03:01.999Z,1.30
2023-11-19T05:08:06.368Z,1.30
2023-11-19T05:13:11.363Z,1.20
2023-11-19T05:18:16.192Z,1.40
2023-11-19T05:23:21.951Z,1.40
2023-11-19T05:28:25.749Z,1.23
2023-11-19T05:33:30.587Z,1.20
2023-11-19T05:38:34.456Z,1.20
2023-11-19T05:43:38.791Z,1.17
2023-11-19T05:48:43.905Z,1.10
2023-11-19T05:53:47.834Z,1.27
2023-11-19T05:58:51.406Z,1.40
2023-11-19T06:03:56.495Z,1.23
2023-11-19T06:09:13.075Z,1.40
2023-11-19T06:14:16.994Z,1.30
2023-11-19T06:19:22.005Z,1.50
2023-11-19T06:24:25.480Z,1.20
2023-11-19T06:29:28.869Z,1.17
2023-11-19T06:34:34.289Z,1.50
2023-11-19T06:39:38.242Z,1.05
2023-11-19T06:44:41.685Z,1.17
2023-11-19T06:49:47.939Z,1.10
2023-11-19T06:54:51.646Z,1.15
2023-11-19T06:59:55.064Z,1.13
2023-11-19T07:05:01.219Z,1.30
2023-11-19T07:10:06.004Z,1.30
2023-11-19T07:15:11.141Z,1.40
2023-11-19T07:20:16.849Z,1.33
2023-11-19T07:25:20.666Z,1.33
2023-11-19T07:30:24.824Z,1.30
2023-11-19T07:35:31.803Z,1.55
2023-11-19T07:40:35.300Z,1.10
2023-11-19T07:45:39.035Z,1.17
2023-11-19T07:50:44.030Z,1.20
2023-11-19T07:55:47.501Z,1.13
2023-11-19T08:00:50.976Z,1.20
2023-11-19T08:05:58.982Z,1.15
2023-11-19T08:11:02.722Z,1.02
2023-11-19T08:16:08.039Z,1.17
2023-11-19T08:21:13.023Z,1.10
2023-11-19T08:26:21.404Z,1.20
2023-11-19T08:31:27.019Z,1.25
2023-11-19T08:36:32.806Z,1.38
2023-11-19T08:41:36.336Z,1.45
2023-11-19T08:46:40.863Z,1.23
2023-11-19T08:51:46.512Z,1.77
2023-11-19T08:56:50.002Z,1.38
2023-11-19T09:01:53.497Z,1.75
2023-11-19T09:07:00.333Z,1.33
2023-11-19T09:12:04.345Z,1.50
2023-11-19T09:17:07.872Z,1.83
2023-11-19T09:22:12.798Z,1.90
2023-11-19T09:27:16.893Z,1.65
2023-11-19T09:32:20.410Z,1.90
2023-11-19T09:37:25.252Z,1.88
2023-11-19T09:42:29.045Z,1.70
2023-11-19T09:47:32.672Z,1.85
2023-11-19T09:52:37.601Z,2.03
2023-11-19T09:57:42.721Z,2.00
2023-11-19T10:02:48.336Z,2.40
2023-11-19T10:07:53.403Z,2.65
2023-11-19T10:12:58.429Z,2.55
2023-11-19T10:18:02.162Z,2.30
2023-11-19T10:23:07.055Z,2.42
2023-11-19T10:28:10.533Z,2.13
2023-11-19T10:33:18.830Z,2.40
2023-11-19T10:38:24.287Z,2.30
2023-11-19T10:43:29.080Z,3.33
2023-11-19T10:48:32.792Z,3.60
2023-11-19T10:53:40.515Z,3.78
2023-11-19T11:03:54.792Z,4.00
2023-11-19T11:09:00.710Z,3.65
2023-11-19T11:14:05.320Z,3.17
2023-11-19T11:19:10.312Z,3.28
2023-11-19T11:24:40.270Z,3.33
2023-11-19T11:29:54.911Z,2.92
2023-11-19T11:35:22.100Z,2.90
2023-11-19T11:40:27.753Z,3.00
2023-11-19T11:45:44.372Z,2.75
2023-11-19T11:50:59.603Z,2.60
2023-11-19T11:56:05.013Z,2.80
2023-11-19T12:01:08.429Z,3.00
2023-11-19T12:06:13.473Z,2.95
2023-11-19T12:11:20.590Z,2.38
2023-11-19T12:16:24.373Z,2.70
2023-11-19T12:21:32.247Z,2.50
2023-11-19T12:26:42.360Z,2.70
2023-11-19T12:31:47.386Z,2.70
2023-11-19T12:36:50.975Z,2.63
2023-11-19T12:41:56.569Z,2.60
2023-11-19T12:47:08.516Z,2.80
2023-11-19T12:52:15.663Z,2.40
2023-11-19T12:57:20.933Z,2.37
2023-11-19T13:02:24.509Z,2.50
2023-11-19T13:07:28.012Z,2.60
2023-11-19T13:12:33.024Z,2.38
2023-11-19T13:17:36.703Z,2.55
2023-11-19T13:22:40.261Z,2.50
2023-11-19T13:27:48.774Z,2.30
2023-11-19T13:32:53.544Z,2.13
2023-11-19T13:37:57.020Z,2.25
2023-11-19T13:43:01.881Z,2.30
2023-11-19T13:48:05.898Z,2.28
2023-11-19T13:53:09.312Z,2.25
2023-11-19T13:58:14.209Z,2.28
2023-11-19T14:03:17.760Z,1.98
2023-11-19T14:08:25.890Z,2.03
2023-11-19T14:13:31.367Z,2.08
2023-11-19T14:18:36.792Z,2.13
2023-11-19T14:23:40.428Z,1.90
2023-11-19T14:38:55.293Z,1.88
2023-11-19T14:44:00.282Z,2.10
2023-11-19T14:49:04.980Z,2.10
2023-11-19T14:54:08.711Z,1.90
2023-11-19T14:59:13.518Z,1.90
2023-11-19T15:04:17.230Z,1.73
2023-11-19T15:09:22.147Z,1.80
2023-11-19T15:14:27.012Z,1.85
2023-11-19T15:19:30.482Z,2.00
2023-11-19T15:24:34.083Z,1.70
2023-11-19T15:29:40.688Z,1.75
2023-11-19T15:34:44.141Z,1.70
2023-11-19T15:39:48.760Z,1.70
2023-11-19T15:44:53.551Z,1.77
2023-11-19T15:49:56.996Z,1.70
2023-11-19T15:55:00.580Z,1.70
2023-11-19T16:00:07.077Z,1.50
2023-11-19T16:05:13.532Z,1.52
2023-11-19T16:10:23.818Z,1.65
2023-11-19T16:20:36.909Z,1.80
2023-11-19T16:25:40.566Z,1.55
2023-11-19T16:30:45.558Z,1.60
2023-11-19T16:35:48.985Z,1.50
2023-11-19T16:40:52.775Z,1.52
2023-11-19T16:45:58.103Z,1.60
2023-11-19T16:56:08.897Z,1.50
2023-11-19T17:01:15.964Z,1.50
2023-11-19T17:06:19.804Z,1.80
2023-11-19T17:11:23.404Z,1.55
2023-11-19T17:16:28.451Z,1.70
2023-11-19T17:21:31.977Z,1.65
2023-11-19T17:31:44.734Z,3.03
2023-11-19T17:36:48.181Z,2.75
2023-11-19T17:41:51.618Z,2.40
2023-11-19T17:46:56.431Z,2.33
2023-11-19T17:51:59.941Z,2.50
2023-11-19T17:57:04.125Z,2.45
2023-11-19T18:02:09.035Z,2.08
2023-11-19T18:07:12.479Z,2.35
2023-11-19T18:12:16.990Z,1.98
2023-11-19T18:17:22.044Z,1.90
2023-11-19T18:22:26.353Z,1.92
2023-11-19T18:27:30.482Z,2.13
2023-11-19T18:32:35.886Z,2.03
2023-11-19T18:37:40.184Z,1.60
2023-11-19T18:42:43.597Z,1.90
2023-11-19T18:47:49.462Z,1.88
2023-11-19T18:52:53.301Z,1.88
2023-11-19T18:57:56.881Z,1.80
2023-11-19T19:03:04.154Z,1.60
2023-11-19T19:08:08.114Z,1.80
2023-11-19T19:13:11.574Z,1.98
2023-11-19T19:18:16.460Z,1.65
2023-11-19T19:23:20.018Z,2.28
2023-11-19T19:28:24.133Z,2.50
2023-11-19T19:33:29.252Z,2.30
2023-11-19T19:38:32.769Z,2.50
2023-11-19T19:43:36.278Z,2.30
2023-11-19T19:48:42.166Z,2.70
2023-11-19T19:53:45.706Z,2.70
2023-11-19T19:58:49.170Z,2.60
2023-11-19T20:03:54.077Z,2.80
2023-11-19T20:08:57.625Z,2.65
2023-11-19T20:14:01.107Z,2.85
2023-11-19T20:19:05.948Z,2.75
2023-11-19T20:24:10.691Z,2.58
2023-11-19T20:29:14.116Z,2.70
2023-11-19T20:34:18.916Z,2.67
2023-11-19T20:39:22.387Z,2.83
2023-11-19T20:44:26.739Z,2.85
2023-11-19T20:49:31.581Z,2.50
2023-11-19T20:59:42.097Z,2.50
2023-11-19T21:04:46.914Z,2.67
2023-11-19T21:09:50.452Z,2.40
2023-11-19T21:14:53.935Z,2.17
2023-11-19T21:19:59.536Z,2.38
2023-11-19T21:25:03.112Z,2.25
2023-11-19T21:30:08.462Z,2.33
2023-11-19T21:35:13.355Z,2.40
2023-11-19T21:40:17.036Z,2.20
2023-11-19T21:45:20.461Z,2.42
2023-11-19T21:50:25.397Z,2.08
2023-11-19T21:55:31.430Z,2.10
2023-11-19T22:00:35.952Z,2.10
2023-11-19T22:05:40.805Z,2.00
2023-11-19T22:10:44.293Z,2.10
2023-11-19T22:15:47.766Z,1.98
2023-11-19T22:20:52.624Z,2.20
2023-11-19T22:25:56.090Z,1.73
2023-11-19T22:30:59.721Z,2.10
2023-11-19T22:36:05.249Z,2.03
2023-11-19T22:41:10.868Z,2.28
2023-11-19T22:46:16.198Z,1.98
2023-11-19T22:51:22.134Z,1.75
2023-11-19T22:56:25.722Z,1.90
2023-11-19T23:01:29.200Z,1.67
2023-11-19T23:06:34.071Z,1.58
2023-11-19T23:11:37.498Z,1.80
2023-11-19T23:16:41.434Z,1.60
2023-11-19T23:21:46.261Z,1.60
2023-11-19T23:26:49.687Z,1.50
2023-11-19T23:31:53.091Z,1.50
2023-11-19T23:36:57.943Z,1.40
2023-11-19T23:42:01.453Z,1.73
2023-11-19T23:47:05.066Z,1.60
2023-11-19T23:52:10.748Z,1.58
2023-11-19T23:57:15.873Z,1.60
